Ballardsville, Mississippi
Current Conditions -  °F | °C
As of 3:53 PM on Wednesday 22 Oct 2014 (Local Time) from KTUP Reporting Station
Clear Clear  
Wind Chill: 68°   Ceiling: Unl
Heat Index: 68°   Visibility: 10mi
Dew Point: 43°   Wind: 12mph
Humidity: 40%   Direction: 50°NE
Pressure: 30.15"   Gusts: NA
Location:  34.2235°N, 88.7398°W
Report Text: KTUP 222053Z AUTO 05010KT 10SM CLR 20/06 A3015 RMK AO2 SLP207 T02000061 56015 PWINO
Loading
Personal Weather Stations






























Interactive Weather Map
Tropical Storm Tracking
New forecast layout! Learn more

10-Day Weather Forecast

Advertisements
Track Severe Weather on mobile